Time;durP1;ratioP1;P1;durP2;ratioP2;P2;SDS_P1;SDS_P2;PMS_P1;PMS_P2;Temp;Humidity;BMP_temperature;BMP_pressure;BME280_temperature;BME280_humidity;BME280_pressure;Samples;Min_cycle;Max_cycle;Signal;HPM_P1;HPM_P2
2022/04/18 00:02:04;;;;;;;11.68;10.98;;;5.80;12.10;;;;;;5073830;28;20830;-69
2022/04/18 00:04:30;;;;;;;11.57;10.97;;;5.80;12.10;;;;;;5072535;28;20198;-69
2022/04/18 00:06:55;;;;;;;10.70;10.20;;;5.70;12.10;;;;;;5073234;28;20316;-69
2022/04/18 00:09:21;;;;;;;10.90;10.40;;;5.70;12.10;;;;;;5073946;28;20170;-69
2022/04/18 00:11:47;;;;;;;11.77;11.17;;;5.70;12.10;;;;;;5073908;28;20248;-69
2022/04/18 00:14:13;;;;;;;11.27;10.67;;;5.60;12.40;;;;;;5073416;28;20575;-69
2022/04/18 00:16:38;;;;;;;12.10;11.40;;;5.50;12.30;;;;;;5073256;28;20178;-69
2022/04/18 00:19:04;;;;;;;10.70;10.20;;;5.60;12.50;;;;;;5073371;28;20492;-69
2022/04/18 00:21:31;;;;;;;11.20;10.57;;;5.60;12.50;;;;;;5073564;28;20237;-69
2022/04/18 00:23:56;;;;;;;11.27;10.70;;;5.50;12.40;;;;;;5073228;28;20587;-69
2022/04/18 00:26:22;;;;;;;10.70;10.20;;;5.40;12.50;;;;;;5074262;28;20166;-69
2022/04/18 00:28:47;;;;;;;11.20;10.33;;;5.30;12.70;;;;;;5074037;28;20646;-70
2022/04/18 00:31:13;;;;;;;10.83;10.20;;;5.40;13.10;;;;;;5073268;28;20202;-69
2022/04/18 00:33:39;;;;;;;10.67;9.90;;;5.20;13.90;;;;;;5072544;28;20205;-69
2022/04/18 00:36:04;;;;;;;10.57;10.07;;;5.20;13.40;;;;;;5073598;28;20251;-70
2022/04/18 00:38:30;;;;;;;11.40;10.70;;;5.10;13.80;;;;;;5072727;28;20916;-69
2022/04/18 00:40:56;;;;;;;10.00;9.50;;;5.20;13.70;;;;;;5073791;28;20201;-70
2022/04/18 00:43:42;;;;;;;10.25;9.55;;;5.20;13.90;;;;;;5077344;28;20184;-70
2022/04/18 00:46:08;;;;;;;10.27;9.77;;;5.30;14.20;;;;;;5093527;28;20173;-69
2022/04/18 00:48:34;;;;;;;9.40;9.00;;;5.00;14.30;;;;;;5092794;28;20543;-69
2022/04/18 00:51:00;;;;;;;9.88;9.38;;;5.10;14.70;;;;;;5092863;28;20638;-69
2022/04/18 00:53:26;;;;;;;10.48;9.50;;;5.00;14.40;;;;;;5092836;28;20173;-69
2022/04/18 00:55:53;;;;;;;9.40;8.98;;;5.00;14.40;;;;;;5093457;28;20174;-70
2022/04/18 00:58:19;;;;;;;10.10;9.50;;;4.90;14.60;;;;;;5091692;28;20180;-70
2022/04/18 01:00:44;;;;;;;10.20;9.53;;;4.70;15.40;;;;;;5093015;28;20189;-69
2022/04/18 01:03:10;;;;;;;10.00;9.00;;;4.70;15.20;;;;;;5093480;28;20181;-68
2022/04/18 01:05:35;;;;;;;9.77;9.17;;;4.70;15.70;;;;;;5091580;28;20303;-69
2022/04/18 01:08:01;;;;;;;9.17;8.67;;;4.70;15.70;;;;;;5093427;28;20577;-69
2022/04/18 01:10:26;;;;;;;10.40;9.80;;;4.70;15.10;;;;;;5091621;28;20204;-69
2022/04/18 01:12:52;;;;;;;10.43;9.77;;;4.80;15.40;;;;;;5092570;28;20173;-68
2022/04/18 01:15:17;;;;;;;9.87;9.27;;;4.70;14.90;;;;;;5092507;28;20673;-69
2022/04/18 01:17:43;;;;;;;10.43;9.03;;;4.50;15.60;;;;;;5093649;28;20231;-69
2022/04/18 01:20:09;;;;;;;9.40;8.87;;;4.50;15.60;;;;;;5092781;28;20197;-69
2022/04/18 01:22:36;;;;;;;8.85;8.45;;;4.50;15.60;;;;;;5092605;28;20177;-69
2022/04/18 01:30:29;;;;;;;9.57;9.07;;;4.40;15.60;;;;;;5114024;22;20294;-71
2022/04/18 01:32:55;;;;;;;10.17;9.30;;;4.40;15.50;;;;;;5092360;28;20173;-72
2022/04/18 01:35:20;;;;;;;9.70;9.03;;;4.40;15.60;;;;;;5093007;28;20180;-72
2022/04/18 01:37:46;;;;;;;9.70;9.10;;;4.40;15.60;;;;;;5091912;28;20184;-71
2022/04/18 01:40:12;;;;;;;10.13;9.50;;;4.40;15.50;;;;;;5091589;28;20208;-71
2022/04/18 01:42:37;;;;;;;9.43;8.80;;;4.40;15.50;;;;;;5092493;28;20181;-71
2022/04/18 01:45:04;;;;;;;9.10;8.60;;;4.30;16.40;;;;;;5093255;28;20209;-70
2022/04/18 01:47:29;;;;;;;9.63;9.02;;;4.20;16.50;;;;;;5093413;28;20184;-70
2022/04/18 01:49:55;;;;;;;9.00;8.43;;;4.20;16.60;;;;;;5092173;28;20185;-71
2022/04/18 01:52:20;;;;;;;11.73;10.73;;;4.20;16.40;;;;;;5092493;28;20218;-70
2022/04/18 01:54:46;;;;;;;8.90;8.27;;;4.20;16.30;;;;;;5092368;28;20467;-71
2022/04/18 01:57:11;;;;;;;8.67;8.17;;;4.20;16.40;;;;;;5091725;28;20188;-71
2022/04/18 01:59:37;;;;;;;9.43;8.83;;;4.10;16.40;;;;;;5091905;28;20259;-70
2022/04/18 02:02:03;;;;;;;9.17;8.57;;;4.10;16.80;;;;;;5092153;28;20173;-71
2022/04/18 02:04:28;;;;;;;9.17;8.53;;;4.00;16.80;;;;;;5092276;28;20201;-71
2022/04/18 02:06:54;;;;;;;8.73;8.33;;;4.00;16.90;;;;;;5091750;28;20568;-71
2022/04/18 02:09:19;;;;;;;9.03;8.47;;;3.90;16.90;;;;;;5092690;28;20634;-71
2022/04/18 02:11:45;;;;;;;8.67;8.17;;;3.90;17.60;;;;;;5091888;28;20181;-70
2022/04/18 02:14:11;;;;;;;9.40;8.80;;;3.90;17.50;;;;;;5092277;28;20177;-71
2022/04/18 02:16:36;;;;;;;9.20;8.70;;;3.80;17.50;;;;;;5092186;28;20650;-71
2022/04/18 02:19:02;;;;;;;8.17;7.63;;;3.70;17.60;;;;;;5092281;28;20185;-71
2022/04/18 02:21:28;;;;;;;9.23;8.63;;;3.70;18.20;;;;;;5091712;28;20196;-69
2022/04/18 02:23:53;;;;;;;9.87;9.23;;;3.70;17.90;;;;;;5091923;28;20486;-70
2022/04/18 02:26:19;;;;;;;7.70;7.20;;;3.70;18.10;;;;;;5091854;28;20180;-70
2022/04/18 02:28:44;;;;;;;8.37;7.83;;;3.50;18.80;;;;;;5092124;28;20646;-69
2022/04/18 02:31:10;;;;;;;8.00;7.50;;;3.50;18.70;;;;;;5091816;28;20217;-70
2022/04/18 02:33:35;;;;;;;8.63;8.03;;;3.50;18.60;;;;;;5091809;28;20172;-70
2022/04/18 02:36:02;;;;;;;9.83;9.20;;;3.50;18.60;;;;;;5092335;28;20177;-70
2022/04/18 02:38:28;;;;;;;9.70;8.88;;;3.50;18.60;;;;;;5092137;28;20203;-70
2022/04/18 02:40:54;;;;;;;8.32;7.68;;;3.50;18.60;;;;;;5091869;28;20443;-69
2022/04/18 02:43:19;;;;;;;9.23;8.73;;;3.40;19.00;;;;;;5091880;28;20586;-70
2022/04/18 02:45:45;;;;;;;7.50;7.03;;;3.40;18.30;;;;;;5092936;28;20212;-71
2022/04/18 02:48:11;;;;;;;8.90;8.30;;;3.40;18.30;;;;;;5091444;28;20165;-71
2022/04/18 02:50:37;;;;;;;8.80;8.20;;;3.30;18.50;;;;;;5092182;28;20192;-71
2022/04/18 02:53:05;;;;;;;8.70;8.20;;;3.30;18.80;;;;;;5091497;28;20176;-71
2022/04/18 02:55:30;;;;;;;8.02;7.43;;;3.20;19.00;;;;;;5092136;28;20169;-71
2022/04/18 02:57:56;;;;;;;7.30;6.90;;;3.20;19.00;;;;;;5092931;28;20180;-71
2022/04/18 03:00:21;;;;;;;8.67;8.20;;;3.20;19.00;;;;;;5095736;28;20203;-72
2022/04/18 03:02:47;;;;;;;7.97;7.43;;;3.10;18.90;;;;;;5095131;28;20187;-71
2022/04/18 03:05:13;;;;;;;8.43;7.80;;;3.00;18.90;;;;;;5095459;28;20211;-72
2022/04/18 03:07:39;;;;;;;7.60;7.10;;;3.10;19.50;;;;;;5095431;28;20266;-72
2022/04/18 03:10:06;;;;;;;7.70;7.20;;;2.90;20.20;;;;;;5094960;28;20224;-71
2022/04/18 03:12:31;;;;;;;7.55;7.05;;;3.00;19.80;;;;;;5095635;28;20272;-71
2022/04/18 03:14:57;;;;;;;6.60;6.20;;;3.00;20.30;;;;;;5094992;28;20649;-71
2022/04/18 03:17:23;;;;;;;6.95;6.43;;;2.90;20.40;;;;;;5095255;28;20208;-71
2022/04/18 03:19:49;;;;;;;8.70;7.93;;;2.90;20.60;;;;;;5095155;28;20200;-71
2022/04/18 03:22:15;;;;;;;7.23;6.60;;;2.80;20.40;;;;;;5095202;28;20413;-72
2022/04/18 03:24:40;;;;;;;8.13;7.53;;;2.90;21.10;;;;;;5093744;28;20486;-71
2022/04/18 03:27:06;;;;;;;7.93;7.43;;;3.00;20.40;;;;;;5094817;28;20209;-71
2022/04/18 03:29:32;;;;;;;6.90;6.40;;;3.00;20.10;;;;;;5094572;28;20176;-72
2022/04/18 03:31:58;;;;;;;6.73;6.33;;;2.90;20.20;;;;;;5095056;28;20191;-71
2022/04/18 03:34:24;;;;;;;8.13;7.50;;;3.00;20.30;;;;;;5095080;28;20414;-71
2022/04/18 03:39:50;;;;;;;7.03;6.63;;;3.10;20.00;;;;;;5094652;28;20192;-71
2022/04/18 03:42:28;;;;;;;7.55;7.05;;;3.00;19.70;;;;;;5093505;28;20223;-71
2022/04/18 03:44:54;;;;;;;7.13;6.55;;;2.90;19.90;;;;;;5094744;28;20248;-71
2022/04/18 03:47:20;;;;;;;7.57;6.88;;;2.90;19.80;;;;;;5093329;28;20532;-70
2022/04/18 03:49:45;;;;;;;8.47;7.67;;;2.80;20.10;;;;;;5094490;28;20178;-70
2022/04/18 03:52:11;;;;;;;7.67;7.07;;;2.70;20.30;;;;;;5094397;28;20258;-70
2022/04/18 03:54:39;;;;;;;8.83;8.20;;;2.70;20.30;;;;;;5094179;28;20263;-71
2022/04/18 03:57:05;;;;;;;8.73;8.10;;;2.70;20.30;;;;;;5094081;28;20222;-71
2022/04/18 03:59:31;;;;;;;8.47;7.87;;;2.70;20.40;;;;;;5094421;28;20591;-72
2022/04/18 04:01:56;;;;;;;8.20;7.50;;;2.70;20.10;;;;;;5094521;28;20209;-70
2022/04/18 04:04:23;;;;;;;8.30;7.50;;;2.70;20.00;;;;;;5093698;28;20454;-70
2022/04/18 04:06:48;;;;;;;8.10;7.50;;;2.70;20.40;;;;;;5094597;28;20173;-72
2022/04/18 04:09:13;;;;;;;8.37;7.87;;;2.70;20.10;;;;;;5094215;28;20520;-71
2022/04/18 04:11:39;;;;;;;7.40;6.90;;;2.70;20.10;;;;;;5093856;28;20200;-71
2022/04/18 04:14:04;;;;;;;9.17;8.30;;;2.70;20.10;;;;;;5093952;28;20202;-71
2022/04/18 04:16:30;;;;;;;7.83;7.33;;;2.70;20.20;;;;;;5093588;28;20253;-71
2022/04/18 04:18:56;;;;;;;8.80;8.10;;;2.60;20.00;;;;;;5096129;28;20265;-71
2022/04/18 04:21:22;;;;;;;7.07;6.53;;;2.60;19.80;;;;;;5094309;28;20275;-71
2022/04/18 04:23:47;;;;;;;8.00;7.50;;;2.50;20.20;;;;;;5093488;28;20235;-71
2022/04/18 04:26:13;;;;;;;7.93;7.30;;;2.50;20.00;;;;;;5092293;28;20268;-71
2022/04/18 04:28:38;;;;;;;7.70;7.20;;;2.40;20.30;;;;;;5093676;28;20176;-70
2022/04/18 04:31:04;;;;;;;9.00;8.03;;;2.40;20.40;;;;;;5093322;28;20417;-71
2022/04/18 04:33:32;;;;;;;8.53;7.93;;;2.30;20.40;;;;;;5093872;28;20174;-71
2022/04/18 04:35:59;;;;;;;8.32;7.65;;;2.30;20.70;;;;;;5093361;28;20178;-71
2022/04/18 04:38:25;;;;;;;7.80;7.30;;;2.30;20.30;;;;;;5093632;28;20628;-71
2022/04/18 04:40:53;;;;;;;8.13;7.53;;;2.30;20.30;;;;;;5093622;28;20203;-71
2022/04/18 04:43:21;;;;;;;7.63;7.07;;;2.30;20.40;;;;;;5093444;28;20207;-72
2022/04/18 04:45:47;;;;;;;6.65;6.25;;;2.30;20.50;;;;;;5093725;28;20204;-71
2022/04/18 04:48:12;;;;;;;7.90;7.30;;;2.20;20.70;;;;;;5094231;28;20178;-72
2022/04/18 04:50:39;;;;;;;7.37;6.87;;;2.30;20.80;;;;;;5081802;28;20670;-72
2022/04/18 04:53:05;;;;;;;8.88;8.25;;;2.40;20.90;;;;;;5073122;28;20210;-71
2022/04/18 04:55:31;;;;;;;7.67;7.13;;;2.40;20.50;;;;;;5072902;28;20226;-71
2022/04/18 04:57:56;;;;;;;7.43;6.93;;;2.40;20.90;;;;;;5072165;28;20203;-72
2022/04/18 05:00:22;;;;;;;8.40;7.80;;;2.50;20.90;;;;;;5072814;28;20553;-72
2022/04/18 05:02:47;;;;;;;8.87;7.97;;;2.50;20.80;;;;;;5072387;28;20183;-72
2022/04/18 05:05:14;;;;;;;7.67;7.07;;;2.50;20.90;;;;;;5071886;28;20207;-72
2022/04/18 05:07:39;;;;;;;8.25;7.45;;;2.60;20.60;;;;;;5072237;28;20184;-72
2022/04/18 05:10:06;;;;;;;7.90;7.47;;;2.70;20.60;;;;;;5088090;28;20229;-72
2022/04/18 05:12:32;;;;;;;7.50;7.07;;;2.70;20.40;;;;;;5072813;28;20172;-72
2022/04/18 05:15:02;;;;;;;8.85;8.25;;;2.60;20.70;;;;;;5072666;28;20169;-72
2022/04/18 05:17:28;;;;;;;7.22;6.63;;;2.60;20.80;;;;;;5071839;28;20274;-72
2022/04/18 05:19:54;;;;;;;7.50;6.97;;;2.70;20.90;;;;;;5071810;28;20647;-72
2022/04/18 05:22:19;;;;;;;7.50;7.10;;;2.80;20.70;;;;;;5072633;28;20264;-72
2022/04/18 05:24:45;;;;;;;7.53;7.03;;;2.90;21.20;;;;;;5072241;28;20302;-72
2022/04/18 05:27:15;;;;;;;7.50;7.00;;;3.60;23.40;;;;;;5072133;28;20660;-71
2022/04/18 05:29:43;;;;;;;8.75;8.05;;;4.80;22.60;;;;;;5071923;28;20170;-72
2022/04/18 05:32:09;;;;;;;9.90;9.27;;;6.30;19.70;;;;;;5072258;28;20609;-72
2022/04/18 05:34:35;;;;;;;10.13;9.53;;;7.80;14.50;;;;;;5072675;28;20212;-72
2022/04/18 05:37:01;;;;;;;12.03;11.43;;;9.20;11.50;;;;;;5072083;28;20542;-72
2022/04/18 05:39:26;;;;;;;11.53;11.00;;;10.40;9.40;;;;;;5072098;28;20219;-71
2022/04/18 05:41:52;;;;;;;12.87;12.17;;;11.60;9.00;;;;;;5072288;28;20197;-72
2022/04/18 05:44:17;;;;;;;12.70;12.13;;;12.30;4.10;;;;;;5072441;28;20210;-71
2022/04/18 05:46:43;;;;;;;12.63;12.03;;;13.00;2.80;;;;;;5072362;28;20175;-71
2022/04/18 05:49:08;;;;;;;11.73;11.23;;;13.60;3.20;;;;;;5071511;28;20178;-72
2022/04/18 05:51:36;;;;;;;13.50;12.90;;;14.20;3.60;;;;;;5072749;28;20212;-71
2022/04/18 05:54:03;;;;;;;12.83;12.23;;;14.90;1.20;;;;;;5072715;28;20191;-72
2022/04/18 05:56:29;;;;;;;13.73;13.13;;;15.70;1.10;;;;;;5072450;28;20503;-71
2022/04/18 05:58:55;;;;;;;13.43;12.73;;;16.10;1.00;;;;;;5071071;28;20507;-71
2022/04/18 06:01:20;;;;;;;14.20;13.50;;;16.10;1.00;;;;;;5070692;28;20436;-71
2022/04/18 06:03:46;;;;;;;14.37;13.67;;;16.20;1.00;;;;;;5072394;28;20500;-72
2022/04/18 06:06:11;;;;;;;13.50;12.90;;;16.30;1.00;;;;;;5073175;28;20265;-71
2022/04/18 06:08:37;;;;;;;13.07;12.47;;;16.50;1.00;;;;;;5071791;28;20215;-71
2022/04/18 06:11:02;;;;;;;13.10;12.60;;;16.70;1.00;;;;;;5072478;28;20671;-71
2022/04/18 06:13:28;;;;;;;12.97;12.27;;;16.30;1.00;;;;;;5077114;28;20253;-71
2022/04/18 06:15:53;;;;;;;12.80;12.20;;;15.90;1.00;;;;;;5072896;28;20205;-72
2022/04/18 06:18:19;;;;;;;13.17;12.47;;;15.80;1.00;;;;;;5072270;28;20206;-71
2022/04/18 06:20:45;;;;;;;12.90;12.37;;;15.80;1.00;;;;;;5072498;28;20198;-71
2022/04/18 06:23:10;;;;;;;14.80;14.00;;;16.30;1.00;;;;;;5072919;28;20647;-71
2022/04/18 06:25:36;;;;;;;13.10;12.50;;;16.50;1.00;;;;;;5072580;28;20675;-71
2022/04/18 06:28:01;;;;;;;14.03;13.43;;;16.40;1.00;;;;;;5071667;28;20178;-71
2022/04/18 06:30:27;;;;;;;13.50;12.90;;;16.00;1.00;;;;;;5072024;28;20476;-72
2022/04/18 06:32:53;;;;;;;13.93;13.30;;;16.00;1.00;;;;;;5074204;28;20178;-71
2022/04/18 06:35:19;;;;;;;15.37;14.13;;;15.40;1.00;;;;;;5076415;28;20862;-71
2022/04/18 06:37:44;;;;;;;13.43;12.93;;;16.10;1.00;;;;;;5076054;28;20166;-74
2022/04/18 06:40:10;;;;;;;13.70;13.10;;;17.20;1.00;;;;;;5076304;28;20439;-73
2022/04/18 06:42:36;;;;;;;14.07;13.47;;;16.80;1.00;;;;;;5076658;28;20185;-72
2022/04/18 06:45:03;;;;;;;13.47;12.87;;;17.70;1.00;;;;;;5095867;28;20201;-73
2022/04/18 06:47:29;;;;;;;14.80;14.10;;;18.60;1.00;;;;;;5098386;28;20435;-73
2022/04/18 06:49:54;;;;;;;13.80;13.20;;;18.60;1.00;;;;;;5109273;28;20442;-72
2022/04/18 06:52:22;;;;;;;13.33;12.63;;;18.80;1.00;;;;;;5098394;28;20207;-72
2022/04/18 06:54:48;;;;;;;14.43;13.70;;;19.00;1.00;;;;;;5098409;28;20169;-72
2022/04/18 06:57:13;;;;;;;15.07;13.93;;;19.30;1.00;;;;;;5091918;28;20478;-72
2022/04/18 06:59:39;;;;;;;14.40;13.77;;;18.90;1.00;;;;;;5094389;28;20470;-73
2022/04/18 07:02:04;;;;;;;14.97;14.00;;;19.20;1.00;;;;;;5099100;28;20192;-72
2022/04/18 07:04:30;;;;;;;14.27;13.57;;;19.60;1.00;;;;;;5092850;28;20300;-72
2022/04/18 07:06:56;;;;;;;13.40;12.87;;;19.80;1.00;;;;;;5092816;28;20182;-72
2022/04/18 07:09:21;;;;;;;14.07;13.47;;;20.20;1.00;;;;;;5094449;28;20503;-72
2022/04/18 07:11:47;;;;;;;14.40;13.80;;;20.30;1.00;;;;;;5100016;28;20189;-74
2022/04/18 07:14:14;;;;;;;13.67;13.00;;;19.90;1.00;;;;;;5100385;28;20439;-73
2022/04/18 07:16:40;;;;;;;13.83;13.13;;;19.90;1.00;;;;;;5095210;28;20430;-73
2022/04/18 07:19:06;;;;;;;13.83;13.27;;;20.20;1.00;;;;;;5090797;28;20431;-73
2022/04/18 07:21:32;;;;;;;15.03;14.30;;;20.50;1.00;;;;;;5093852;28;21024;-72
2022/04/18 07:23:57;;;;;;;14.40;13.80;;;20.40;1.00;;;;;;5093730;28;20205;-72
2022/04/18 07:26:23;;;;;;;13.50;12.90;;;20.50;1.00;;;;;;5093096;28;20685;-73
2022/04/18 07:28:49;;;;;;;16.37;15.50;;;20.10;1.00;;;;;;5092894;28;20190;-71
2022/04/18 07:31:15;;;;;;;14.57;13.97;;;19.80;1.00;;;;;;5091064;28;20224;-71
2022/04/18 07:33:41;;;;;;;14.83;14.03;;;20.10;1.00;;;;;;5090836;28;20181;-72
2022/04/18 07:36:07;;;;;;;14.90;14.20;;;20.50;1.00;;;;;;5090198;28;20189;-72
2022/04/18 07:38:51;;;;;;;16.80;15.80;;;20.50;1.00;;;;;;5092435;28;20418;-71
2022/04/18 07:41:24;;;;;;;14.73;13.93;;;20.80;1.00;;;;;;5091578;28;20489;-72
2022/04/18 07:43:51;;;;;;;14.97;14.20;;;19.40;1.00;;;;;;5090373;28;20839;-72
2022/04/18 07:46:18;;;;;;;14.80;14.10;;;18.90;1.00;;;;;;5091177;28;20522;-71
2022/04/18 07:48:45;;;;;;;15.10;14.40;;;16.00;1.00;;;;;;5089024;28;20431;-74
2022/04/18 07:53:55;;;;;;;13.70;13.10;;;15.00;1.00;;;;;;5091270;28;20876;-73
2022/04/18 07:56:21;;;;;;;13.90;13.20;;;15.30;1.00;;;;;;5091409;28;20431;-72
2022/04/18 07:58:47;;;;;;;15.13;14.43;;;16.30;1.00;;;;;;5090679;28;20423;-72
2022/04/18 08:01:13;;;;;;;14.33;13.67;;;16.50;1.00;;;;;;5092216;28;20205;-74
2022/04/18 08:03:38;;;;;;;15.07;14.37;;;16.10;1.00;;;;;;5091446;28;20434;-71
2022/04/18 08:06:04;;;;;;;15.07;14.33;;;15.70;1.00;;;;;;5091208;28;20703;-69
2022/04/18 08:08:31;;;;;;;14.63;14.03;;;14.90;1.00;;;;;;5092165;28;20666;-69
2022/04/18 08:10:58;;;;;;;14.83;14.03;;;14.40;1.00;;;;;;5091185;28;20193;-69
2022/04/18 08:13:23;;;;;;;14.10;13.40;;;14.40;1.00;;;;;;5089863;28;20915;-68
2022/04/18 08:15:49;;;;;;;14.10;13.50;;;14.30;1.00;;;;;;5091275;28;20479;-69
2022/04/18 08:18:15;;;;;;;15.63;14.70;;;13.90;1.00;;;;;;5090383;28;20303;-69
2022/04/18 08:20:40;;;;;;;13.70;13.20;;;13.90;1.00;;;;;;5089325;28;20499;-68
2022/04/18 08:23:06;;;;;;;15.23;14.53;;;13.30;1.00;;;;;;5089618;28;20185;-69
2022/04/18 08:25:32;;;;;;;13.27;12.67;;;13.30;1.00;;;;;;5089789;28;20610;-68
2022/04/18 08:27:57;;;;;;;14.53;13.73;;;13.70;1.10;;;;;;5090848;28;20172;-68
2022/04/18 08:30:23;;;;;;;13.90;13.20;;;14.00;1.00;;;;;;5089999;28;20216;-69
2022/04/18 08:32:48;;;;;;;14.00;13.30;;;14.00;1.00;;;;;;5088477;28;20214;-70
2022/04/18 08:35:14;;;;;;;14.37;13.57;;;13.50;1.70;;;;;;5088306;28;20251;-72
2022/04/18 08:37:40;;;;;;;14.47;13.67;;;13.70;2.20;;;;;;5091031;28;20670;-70
2022/04/18 08:40:09;;;;;;;15.30;14.40;;;13.60;2.40;;;;;;5094516;28;20220;-70
2022/04/18 08:42:39;;;;;;;14.37;13.67;;;13.20;2.90;;;;;;5093782;28;20219;-69
2022/04/18 08:45:11;;;;;;;13.50;12.80;;;13.10;3.40;;;;;;5092075;28;20617;-70
2022/04/18 08:53:12;;;;;;;14.57;13.87;;;12.80;2.60;;;;;;5092362;28;20422;-70
2022/04/18 08:55:38;;;;;;;14.30;13.60;;;12.80;2.70;;;;;;5093095;28;20489;-68
2022/04/18 08:58:05;;;;;;;14.40;13.70;;;12.20;3.70;;;;;;5093351;28;20423;-69
2022/04/18 09:00:31;;;;;;;13.97;13.37;;;12.20;2.80;;;;;;5093406;28;20484;-70
2022/04/18 09:02:56;;;;;;;14.60;13.90;;;12.10;3.20;;;;;;5093249;28;20417;-70
2022/04/18 09:05:22;;;;;;;14.20;13.50;;;12.00;3.60;;;;;;5087701;28;20692;-70
2022/04/18 09:08:05;;;;;;;12.53;11.93;;;11.80;4.20;;;;;;5088982;28;20476;-71
2022/04/18 09:10:32;;;;;;;13.47;12.30;;;12.00;4.10;;;;;;5094975;28;20261;-70
2022/04/18 09:13:14;;;;;;;14.47;13.77;;;12.00;4.40;;;;;;5101711;28;20429;-71
2022/04/18 09:15:39;;;;;;;13.37;12.67;;;12.20;4.40;;;;;;5088746;28;20423;-70
2022/04/18 09:18:13;;;;;;;14.30;13.50;;;12.20;4.50;;;;;;5088406;28;20419;-70
2022/04/18 09:20:44;;;;;;;13.83;13.13;;;12.10;3.90;;;;;;5087817;28;20200;-70
2022/04/18 09:23:30;;;;;;;15.07;14.17;;;12.00;4.30;;;;;;5089220;28;20427;-70
2022/04/18 09:26:15;;;;;;;13.43;12.83;;;11.90;4.20;;;;;;5088742;28;20568;-69
2022/04/18 09:28:41;;;;;;;13.50;12.60;;;11.90;4.30;;;;;;5089865;28;20967;-70
2022/04/18 09:31:08;;;;;;;13.63;12.83;;;12.00;4.10;;;;;;5089375;28;20555;-70
2022/04/18 09:33:36;;;;;;;15.30;14.40;;;12.10;5.00;;;;;;5089651;28;20183;-70
2022/04/18 09:36:15;;;;;;;13.77;13.07;;;12.30;3.10;;;;;;5088276;28;20712;-70
2022/04/18 09:38:55;;;;;;;13.30;12.70;;;12.50;3.00;;;;;;5074091;28;20463;-70
2022/04/18 09:41:29;;;;;;;13.23;12.63;;;12.50;2.40;;;;;;5073961;28;20532;-71
2022/04/18 09:43:56;;;;;;;12.83;12.23;;;12.60;2.50;;;;;;5089376;28;20819;-70
2022/04/18 09:46:23;;;;;;;13.10;12.57;;;12.80;2.50;;;;;;5090066;28;20492;-73
2022/04/18 09:48:50;;;;;;;13.30;12.57;;;12.80;1.90;;;;;;5092507;28;20407;-69
2022/04/18 09:51:29;;;;;;;13.40;12.70;;;12.90;1.90;;;;;;5091303;28;20523;-70
2022/04/18 09:53:59;;;;;;;14.10;13.37;;;13.10;1.00;;;;;;5092998;28;20488;-69
2022/04/18 09:56:29;;;;;;;13.00;12.37;;;13.30;1.00;;;;;;5092459;28;20427;-70
2022/04/18 09:58:56;;;;;;;13.70;13.10;;;13.40;1.40;;;;;;5092666;28;20775;-72
2022/04/18 10:01:23;;;;;;;13.47;12.87;;;13.60;1.40;;;;;;5091466;28;20431;-72
2022/04/18 10:03:52;;;;;;;13.53;12.83;;;13.70;1.00;;;;;;5091685;28;20431;-70
2022/04/18 10:06:19;;;;;;;12.50;11.90;;;14.10;1.00;;;;;;5094063;28;20803;-71
2022/04/18 10:08:45;;;;;;;14.47;13.83;;;14.40;1.00;;;;;;5098387;28;20462;-71
2022/04/18 10:11:13;;;;;;;14.20;13.50;;;14.50;1.00;;;;;;5098836;28;20459;-72
2022/04/18 10:13:39;;;;;;;13.70;13.10;;;14.70;1.00;;;;;;5098919;28;20757;-71
2022/04/18 10:16:06;;;;;;;13.87;13.27;;;14.80;1.00;;;;;;5099512;28;20412;-71
2022/04/18 10:18:50;;;;;;;13.67;12.73;;;14.90;1.00;;;;;;5099702;28;20186;-70
2022/04/18 10:21:31;;;;;;;12.73;12.20;;;15.00;1.00;;;;;;5099631;28;20433;-72
2022/04/18 10:24:15;;;;;;;13.20;12.70;;;15.10;1.00;;;;;;5099118;28;20562;-70
2022/04/18 10:27:16;;;;;;;13.00;12.40;;;15.20;1.00;;;;;;5100534;28;20435;-69
2022/04/18 10:29:48;;;;;;;13.80;13.20;;;15.20;1.00;;;;;;5097656;28;20462;-69
2022/04/18 10:32:20;;;;;;;13.40;12.80;;;15.30;1.00;;;;;;5098731;28;20766;-71
2022/04/18 10:34:49;;;;;;;13.03;12.43;;;15.40;1.00;;;;;;5098702;28;20414;-69
2022/04/18 10:37:16;;;;;;;14.37;13.67;;;15.50;1.00;;;;;;5098582;28;20869;-69
2022/04/18 10:39:41;;;;;;;14.07;13.37;;;15.60;1.00;;;;;;5097883;28;20434;-69
2022/04/18 10:42:23;;;;;;;13.70;12.90;;;15.50;1.00;;;;;;5098947;28;20439;-69
2022/04/18 10:45:09;;;;;;;14.03;13.33;;;15.60;1.00;;;;;;5082646;28;20221;-69
2022/04/18 10:48:13;;;;;;;13.90;13.27;;;15.60;1.00;;;;;;5078751;28;20407;-68
2022/04/18 10:50:41;;;;;;;14.07;13.37;;;15.70;1.00;;;;;;5078014;28;20430;-69
2022/04/18 10:53:17;;;;;;;14.13;13.40;;;15.80;1.00;;;;;;5088551;28;21004;-70
2022/04/18 10:55:51;;;;;;;13.97;13.27;;;15.60;1.00;;;;;;5078729;28;20497;-70
2022/04/18 10:58:37;;;;;;;13.90;13.20;;;15.60;1.00;;;;;;5091852;28;20464;-68
2022/04/18 11:01:08;;;;;;;13.60;12.90;;;15.60;1.00;;;;;;5099544;28;20456;-71
2022/04/18 11:03:44;;;;;;;12.90;12.10;;;15.70;1.00;;;;;;5099675;28;20440;-71
2022/04/18 11:06:16;;;;;;;13.00;12.40;;;15.70;1.00;;;;;;5098591;28;20420;-71
2022/04/18 11:08:56;;;;;;;14.10;13.50;;;15.80;1.00;;;;;;5078869;28;20461;-71
2022/04/18 11:11:22;;;;;;;12.83;12.33;;;15.50;1.00;;;;;;5094747;28;20438;-72
2022/04/18 11:13:48;;;;;;;13.63;13.03;;;15.50;1.00;;;;;;5098439;28;20988;-71
2022/04/18 11:16:23;;;;;;;13.70;13.10;;;15.60;1.00;;;;;;5099411;28;20172;-71
2022/04/18 11:19:05;;;;;;;13.27;12.77;;;15.80;1.00;;;;;;5097747;28;20945;-71
2022/04/18 11:21:54;;;;;;;13.40;12.80;;;15.80;1.00;;;;;;5116654;28;20446;-69
2022/04/18 11:24:35;;;;;;;12.77;11.93;;;15.80;1.00;;;;;;5099507;28;20818;-71
2022/04/18 11:27:01;;;;;;;13.00;12.50;;;15.80;1.00;;;;;;5095458;28;20421;-70
2022/04/18 11:29:29;;;;;;;13.83;12.90;;;15.50;1.00;;;;;;5095638;28;20419;-70
2022/04/18 11:31:56;;;;;;;12.67;12.07;;;15.70;1.00;;;;;;5096567;28;20471;-71
2022/04/18 11:34:25;;;;;;;12.90;12.40;;;15.70;1.00;;;;;;5096760;28;20411;-71
2022/04/18 11:36:53;;;;;;;13.73;12.93;;;15.60;1.00;;;;;;5095577;28;20437;-71
2022/04/18 11:39:18;;;;;;;13.93;13.13;;;15.60;1.00;;;;;;5095311;28;20410;-71
2022/04/18 11:41:44;;;;;;;12.70;12.20;;;15.60;1.00;;;;;;5095453;28;20923;-70
2022/04/18 11:44:10;;;;;;;14.00;13.30;;;15.70;1.00;;;;;;5089228;28;20207;-70
2022/04/18 11:46:36;;;;;;;14.17;13.47;;;15.40;1.00;;;;;;5094978;28;20450;-70
2022/04/18 11:49:02;;;;;;;13.60;13.00;;;15.60;1.00;;;;;;5097049;28;20502;-72
2022/04/18 11:51:42;;;;;;;13.73;12.73;;;15.10;1.00;;;;;;5095242;28;20447;-73
2022/04/18 11:54:08;;;;;;;13.30;12.70;;;15.10;1.00;;;;;;5095869;28;20179;-73
2022/04/18 11:56:34;;;;;;;14.50;13.80;;;15.10;1.00;;;;;;5093787;28;20722;-73
2022/04/18 11:59:04;;;;;;;12.97;12.27;;;15.30;1.00;;;;;;5094092;28;20430;-72
2022/04/18 12:07:00;;;;;;;13.07;12.47;;;15.90;1.00;;;;;;5094466;28;20399;-72
2022/04/18 12:09:25;;;;;;;12.40;11.80;;;16.10;1.00;;;;;;5093952;28;20438;-70
2022/04/18 12:11:52;;;;;;;14.17;13.20;;;16.10;1.00;;;;;;5094242;28;20960;-69
2022/04/18 12:14:18;;;;;;;13.70;13.10;;;16.00;1.00;;;;;;5094405;28;20177;-69
2022/04/18 12:16:44;;;;;;;12.83;12.23;;;15.90;1.00;;;;;;5092603;28;20416;-70
2022/04/18 12:19:11;;;;;;;12.20;11.70;;;16.10;1.00;;;;;;5093821;28;20431;-71
2022/04/18 12:21:37;;;;;;;13.10;12.50;;;16.20;1.00;;;;;;5095752;28;20437;-73
2022/04/18 12:24:03;;;;;;;14.03;13.43;;;16.20;1.00;;;;;;5093868;28;20450;-70
2022/04/18 12:26:35;;;;;;;14.17;13.57;;;16.10;1.00;;;;;;5093310;28;20395;-71
2022/04/18 12:29:02;;;;;;;12.60;11.90;;;16.20;1.00;;;;;;5093783;28;20457;-70
2022/04/18 12:31:28;;;;;;;13.80;12.57;;;16.20;1.00;;;;;;5091530;28;20568;-70
2022/04/18 12:33:53;;;;;;;13.40;12.80;;;16.30;1.00;;;;;;5093643;28;20426;-71
2022/04/18 12:36:27;;;;;;;13.70;13.00;;;16.40;1.00;;;;;;5093594;28;20169;-71
2022/04/18 12:38:54;;;;;;;13.57;12.87;;;16.50;1.00;;;;;;5093380;28;20234;-71
2022/04/18 12:41:29;;;;;;;12.90;12.30;;;16.70;1.00;;;;;;5092512;28;20484;-71
2022/04/18 12:43:54;;;;;;;12.83;12.23;;;16.50;1.00;;;;;;5094336;28;20468;-70
2022/04/18 12:46:31;;;;;;;13.20;12.57;;;16.20;1.00;;;;;;5093414;28;20439;-71
2022/04/18 12:48:57;;;;;;;13.73;13.03;;;16.20;1.00;;;;;;5093213;28;20191;-71
2022/04/18 12:51:31;;;;;;;12.77;12.23;;;16.30;1.00;;;;;;5093523;28;20431;-70
2022/04/18 12:53:57;;;;;;;13.37;12.77;;;16.20;1.00;;;;;;5093063;28;20173;-72
2022/04/18 12:56:25;;;;;;;13.27;12.57;;;15.70;1.00;;;;;;5093125;28;20431;-70
2022/04/18 12:59:03;;;;;;;14.17;13.07;;;15.80;1.00;;;;;;5092904;28;20474;-70
2022/04/18 13:01:36;;;;;;;14.03;13.33;;;15.90;1.00;;;;;;5093129;28;20472;-70
2022/04/18 13:04:03;;;;;;;12.43;11.83;;;16.00;1.00;;;;;;5092723;28;20788;-70
2022/04/18 13:06:31;;;;;;;14.10;13.40;;;16.30;1.00;;;;;;5093046;28;20411;-71
2022/04/18 13:09:04;;;;;;;12.67;11.97;;;16.40;1.00;;;;;;5091283;28;20510;-71